Time;durP1;ratioP1;P1;durP2;ratioP2;P2;SDS_P1;SDS_P2;PMS_P1;PMS_P2;Temp;Humidity;BMP_temperature;BMP_pressure;BME280_temperature;BME280_humidity;BME280_pressure;Samples;Min_cycle;Max_cycle;Signal;HPM_P1;HPM_P2
2021/12/24 00:00:26;;;;;;;9.88;3.92;;;21.20;50.40;;;;;;5135666;28;20655;-57
2021/12/24 00:02:58;;;;;;;10.43;4.23;;;21.20;50.40;;;;;;5133578;28;20136;-58
2021/12/24 00:05:32;;;;;;;15.77;4.50;;;21.20;50.40;;;;;;5132615;28;20305;-57
2021/12/24 00:08:04;;;;;;;10.97;3.83;;;21.20;50.40;;;;;;5134283;28;20734;-58
2021/12/24 00:10:39;;;;;;;14.88;4.35;;;21.20;50.40;;;;;;5134274;28;20302;-58
2021/12/24 00:13:14;;;;;;;11.15;4.25;;;21.20;50.40;;;;;;5132234;28;22528;-57
2021/12/24 00:35:32;;;;;;;5.45;3.40;;;21.20;50.50;;;;;;5132167;28;20046;-56
2021/12/24 00:38:08;;;;;;;6.25;3.45;;;21.20;50.60;;;;;;5146297;28;20057;-56
2021/12/24 00:40:45;;;;;;;9.23;3.58;;;21.20;50.50;;;;;;5128393;28;20042;-54
2021/12/24 00:43:17;;;;;;;10.50;3.60;;;21.20;50.50;;;;;;5135670;28;20046;-56
2021/12/24 00:45:50;;;;;;;10.15;3.42;;;21.20;51.10;;;;;;5134588;28;20046;-58
2021/12/24 00:48:22;;;;;;;7.80;3.15;;;21.20;50.60;;;;;;5138621;28;20046;-57
2021/12/24 00:56:13;;;;;;;9.82;3.30;;;21.20;50.50;;;;;;5135016;28;20050;-56
2021/12/24 00:58:47;;;;;;;5.13;3.10;;;21.20;50.50;;;;;;5129540;28;20042;-56
2021/12/24 01:01:20;;;;;;;;;;;21.20;50.50;;;;;;5139982;28;20057;-56
2021/12/24 01:03:52;;;;;;;8.77;2.85;;;21.10;50.40;;;;;;5133569;28;19932;-58
2021/12/24 01:06:25;;;;;;;6.78;3.10;;;21.10;50.50;;;;;;5140789;28;20058;-54
2021/12/24 01:08:58;;;;;;;7.55;2.80;;;21.20;50.70;;;;;;5153833;28;20569;-58
2021/12/24 01:11:31;;;;;;;9.00;3.78;;;21.20;50.70;;;;;;5144565;28;21311;-58
2021/12/24 01:14:04;;;;;;;7.45;2.75;;;21.10;50.60;;;;;;5143642;28;20045;-57
2021/12/24 01:16:44;;;;;;;5.53;2.95;;;21.10;50.60;;;;;;5146323;28;20035;-57
2021/12/24 01:19:22;;;;;;;6.03;2.90;;;21.10;50.60;;;;;;5136824;28;20061;-57
2021/12/24 01:24:43;;;;;;;10.32;2.78;;;21.10;50.70;;;;;;5131573;28;20058;-57
2021/12/24 01:30:08;;;;;;;7.20;2.65;;;21.10;50.60;;;;;;5129774;28;20059;-57
2021/12/24 01:39:20;;;;;;;6.88;2.63;;;21.10;50.70;;;;;;5129802;28;20050;-53
2021/12/24 01:42:40;;;;;;;5.10;2.55;;;21.10;50.70;;;;;;5117790;28;20046;-58
2021/12/24 01:44:12;;;;;;;6.80;2.20;;;21.10;50.70;;;;;;5124453;28;20038;-58
2021/12/24 01:46:45;;;;;;;5.70;2.60;;;21.10;50.70;;;;;;5125887;28;20524;-57
2021/12/24 01:49:17;;;;;;;5.32;2.60;;;21.10;50.70;;;;;;5128858;28;20478;-58
2021/12/24 01:51:52;;;;;;;6.70;2.40;;;21.10;50.70;;;;;;5145197;28;20632;-56
2021/12/24 01:54:26;;;;;;;5.25;2.70;;;21.10;50.60;;;;;;5147229;28;20984;-57
2021/12/24 01:56:59;;;;;;;;;;;21.10;50.70;;;;;;5145361;28;20047;-55
2021/12/24 01:59:31;;;;;;;7.43;3.15;;;21.00;50.70;;;;;;5130837;28;19937;-58
2021/12/24 02:02:04;;;;;;;5.05;2.58;;;21.00;50.70;;;;;;5142132;28;20046;-58
2021/12/24 02:04:36;;;;;;;4.10;2.38;;;21.00;50.80;;;;;;5120805;28;20053;-56
2021/12/24 02:07:09;;;;;;;4.40;2.50;;;21.10;50.80;;;;;;5137180;28;20046;-56
2021/12/24 02:09:42;;;;;;;5.32;2.65;;;21.10;50.80;;;;;;5146012;28;20057;-56
2021/12/24 02:12:15;;;;;;;5.05;2.30;;;21.10;50.80;;;;;;5158736;28;20083;-58
2021/12/24 02:14:52;;;;;;;4.95;2.78;;;21.10;50.80;;;;;;5156718;28;20053;-57
2021/12/24 02:28:18;;;;;;;7.75;2.17;;;21.00;50.70;;;;;;5138095;28;20046;-57
2021/12/24 02:28:50;;;;;;;6.88;2.45;;;21.00;50.70;;;;;;5137860;28;20050;-53
2021/12/24 02:31:25;;;;;;;9.88;1.98;;;21.00;50.70;;;;;;5135571;28;20798;-56
2021/12/24 02:33:58;;;;;;;5.70;2.38;;;21.10;50.70;;;;;;5155631;28;20613;-58
2021/12/24 02:36:30;;;;;;;3.78;2.20;;;21.00;50.70;;;;;;5136476;28;20046;-56
2021/12/24 02:39:04;;;;;;;6.30;2.38;;;21.10;50.70;;;;;;5131032;28;20405;-58
2021/12/24 02:41:37;;;;;;;6.18;2.30;;;21.00;50.70;;;;;;5132225;28;20057;-57
2021/12/24 02:44:10;;;;;;;7.80;2.25;;;21.10;50.70;;;;;;5136880;28;20054;-58
2021/12/24 02:55:16;;;;;;;8.35;2.97;;;21.00;50.60;;;;;;5137160;28;20046;-56
2021/12/24 02:57:49;;;;;;;4.75;1.80;;;21.00;50.70;;;;;;5135258;28;20051;-58
2021/12/24 03:00:26;;;;;;;3.55;1.90;;;21.00;50.70;;;;;;5146600;28;20065;-55
2021/12/24 03:02:59;;;;;;;7.25;2.33;;;21.00;50.70;;;;;;5110930;28;20046;-55
2021/12/24 03:05:31;;;;;;;3.33;1.75;;;21.00;50.60;;;;;;5126677;28;20050;-57
2021/12/24 03:08:04;;;;;;;5.00;2.10;;;21.00;50.60;;;;;;5150944;28;20050;-57
2021/12/24 03:10:37;;;;;;;5.90;2.27;;;21.00;50.70;;;;;;5146941;28;20066;-57
2021/12/24 03:13:09;;;;;;;3.45;1.80;;;21.00;50.60;;;;;;5138789;28;20219;-55
2021/12/24 03:15:42;;;;;;;3.17;1.90;;;21.00;50.70;;;;;;5135623;28;20041;-56
2021/12/24 03:18:22;;;;;;;3.22;1.88;;;21.00;50.60;;;;;;5134797;28;20046;-57
2021/12/24 03:21:07;;;;;;;3.75;1.55;;;21.00;50.70;;;;;;5133667;28;20054;-58
2021/12/24 03:23:43;;;;;;;5.78;2.10;;;21.00;50.70;;;;;;5141654;28;20521;-56
2021/12/24 03:26:16;;;;;;;5.20;2.00;;;21.00;50.70;;;;;;5129055;28;20529;-57
2021/12/24 03:28:48;;;;;;;3.95;2.13;;;21.00;50.60;;;;;;5131352;28;20404;-57
2021/12/24 03:31:21;;;;;;;2.90;1.67;;;21.00;50.60;;;;;;5150315;28;20041;-58
2021/12/24 03:33:54;;;;;;;4.38;2.40;;;21.00;50.60;;;;;;5146411;28;20387;-56
2021/12/24 03:36:27;;;;;;;3.00;1.93;;;20.90;50.50;;;;;;5128886;28;20050;-54
2021/12/24 03:39:00;;;;;;;2.95;1.77;;;21.00;50.50;;;;;;5150552;28;20047;-57
2021/12/24 03:41:33;;;;;;;2.78;1.80;;;20.90;50.60;;;;;;5131555;28;20511;-56
2021/12/24 03:44:08;;;;;;;4.43;1.83;;;21.00;50.60;;;;;;5128129;28;20047;-58
2021/12/24 03:47:00;;;;;;;4.30;1.48;;;21.00;50.60;;;;;;5127002;28;20434;-57
2021/12/24 03:49:39;;;;;;;6.07;1.77;;;21.00;50.60;;;;;;5127979;28;20058;-57
2021/12/24 03:55:00;;;;;;;4.97;1.67;;;20.90;50.60;;;;;;5127822;28;20038;-55
2021/12/24 03:57:39;;;;;;;5.10;2.08;;;20.90;50.70;;;;;;5120768;28;20050;-57
2021/12/24 04:00:37;;;;;;;7.53;1.50;;;20.90;50.70;;;;;;5108224;28;20054;-57
2021/12/24 04:03:28;;;;;;;3.70;1.67;;;20.90;50.90;;;;;;5126773;28;20050;-55
2021/12/24 04:06:19;;;;;;;8.18;2.13;;;20.90;50.90;;;;;;5129420;28;20046;-55
2021/12/24 04:08:57;;;;;;;6.72;1.52;;;20.90;51.00;;;;;;5127255;28;20058;-57
2021/12/24 04:11:43;;;;;;;5.32;1.60;;;20.90;51.10;;;;;;5127961;28;20046;-56
2021/12/24 04:14:16;;;;;;;3.38;1.98;;;20.90;51.00;;;;;;5132688;28;20054;-58
2021/12/24 04:16:48;;;;;;;4.88;1.63;;;20.90;51.10;;;;;;5136059;28;20364;-58
2021/12/24 04:27:26;;;;;;;14.05;1.90;;;20.90;51.30;;;;;;5131447;28;20046;-56
2021/12/24 04:30:13;;;;;;;5.47;1.83;;;20.90;51.30;;;;;;5118264;28;20110;-54
2021/12/24 04:33:11;;;;;;;5.03;1.65;;;20.90;51.30;;;;;;5127801;28;20066;-58
2021/12/24 04:35:55;;;;;;;10.82;2.85;;;20.90;51.40;;;;;;5123813;28;20042;-55
2021/12/24 04:38:39;;;;;;;9.88;1.60;;;20.90;51.50;;;;;;5146920;28;20557;-56
2021/12/24 04:52:54;;;;;;;7.97;1.73;;;20.90;51.60;;;;;;5139150;28;20247;-56
2021/12/24 05:01:30;;;;;;;9.63;2.22;;;20.90;51.60;;;;;;5137537;28;20050;-58
2021/12/24 05:04:05;;;;;;;5.15;1.80;;;20.90;51.60;;;;;;5122853;28;20049;-57
2021/12/24 05:06:48;;;;;;;5.10;1.58;;;20.90;51.60;;;;;;5135748;28;20058;-55
2021/12/24 05:09:24;;;;;;;5.82;1.80;;;20.90;51.60;;;;;;5138859;28;20046;-57
2021/12/24 05:11:56;;;;;;;6.82;2.30;;;20.90;51.60;;;;;;5121204;28;20047;-58
2021/12/24 05:14:31;;;;;;;8.02;1.73;;;20.90;51.60;;;;;;5132466;28;20049;-57
2021/12/24 05:17:31;;;;;;;7.90;1.90;;;20.90;51.70;;;;;;5133323;28;20042;-57
2021/12/24 05:23:24;;;;;;;5.57;1.55;;;20.90;51.70;;;;;;5096383;28;20039;-56
2021/12/24 05:25:58;;;;;;;6.85;2.08;;;20.90;51.70;;;;;;5100552;28;20120;-58
2021/12/24 05:28:32;;;;;;;13.40;2.15;;;20.90;51.70;;;;;;5129247;28;20054;-56
2021/12/24 05:31:05;;;;;;;3.05;1.85;;;20.90;51.70;;;;;;5128203;28;20046;-58
2021/12/24 05:33:37;;;;;;;8.50;1.55;;;20.90;51.70;;;;;;5108046;28;20061;-57
2021/12/24 05:36:10;;;;;;;4.47;2.13;;;20.90;51.70;;;;;;5113314;28;20038;-58
2021/12/24 05:38:43;;;;;;;13.30;3.05;;;20.90;51.70;;;;;;5123474;28;20517;-56
2021/12/24 05:41:18;;;;;;;9.40;1.88;;;20.90;51.70;;;;;;5134745;28;20091;-57
2021/12/24 05:43:52;;;;;;;3.55;1.63;;;20.90;51.80;;;;;;5139893;28;20081;-56
2021/12/24 05:46:30;;;;;;;10.98;2.35;;;21.00;51.80;;;;;;5097199;28;21649;-57
2021/12/24 05:49:15;;;;;;;13.57;1.80;;;21.00;51.80;;;;;;5108626;28;20058;-56
2021/12/24 05:52:04;;;;;;;13.70;2.42;;;21.00;51.80;;;;;;5116046;28;20050;-57
2021/12/24 05:54:54;;;;;;;8.82;1.92;;;21.00;51.80;;;;;;5117287;28;20092;-60
2021/12/24 05:57:28;;;;;;;7.82;1.70;;;21.00;51.80;;;;;;5131158;28;20047;-50
2021/12/24 06:00:05;;;;;;;6.18;1.92;;;21.00;51.80;;;;;;5122705;28;20293;-51
2021/12/24 06:02:44;;;;;;;5.83;1.90;;;21.10;51.80;;;;;;5121697;28;20038;-53
2021/12/24 06:05:17;;;;;;;11.93;1.90;;;21.10;51.80;;;;;;5120824;28;21787;-49
2021/12/24 06:07:49;;;;;;;7.70;1.88;;;21.10;51.80;;;;;;5132234;28;20050;-50
2021/12/24 06:10:22;;;;;;;4.63;1.60;;;21.10;51.80;;;;;;5138809;28;20514;-51
2021/12/24 06:12:54;;;;;;;11.80;1.98;;;21.10;51.80;;;;;;5129917;28;20415;-50
2021/12/24 06:15:27;;;;;;;8.80;2.78;;;21.10;51.70;;;;;;5099852;28;20621;-52
2021/12/24 06:17:59;;;;;;;8.73;1.60;;;21.10;51.70;;;;;;5090344;28;20055;-51
2021/12/24 06:20:32;;;;;;;10.13;1.58;;;21.10;51.70;;;;;;5105365;28;20047;-51
2021/12/24 06:23:07;;;;;;;6.97;2.20;;;21.20;51.70;;;;;;5096428;28;20054;-50
2021/12/24 06:25:40;;;;;;;4.55;1.70;;;21.20;51.70;;;;;;5089644;28;20056;-49
2021/12/24 06:28:12;;;;;;;6.07;1.67;;;21.10;51.70;;;;;;5088871;28;20053;-48
2021/12/24 06:30:45;;;;;;;7.80;1.40;;;21.10;51.70;;;;;;5099717;28;20427;-50
2021/12/24 06:33:18;;;;;;;7.05;1.60;;;21.20;51.70;;;;;;5115483;28;20061;-49
2021/12/24 06:35:53;;;;;;;5.60;1.90;;;21.10;51.70;;;;;;5104678;28;20053;-49
2021/12/24 06:38:26;;;;;;;5.90;1.73;;;21.20;51.80;;;;;;5104187;28;20245;-50
2021/12/24 06:40:59;;;;;;;15.52;2.42;;;21.20;51.80;;;;;;5116533;28;20073;-54
2021/12/24 06:43:33;;;;;;;4.15;1.42;;;21.20;51.80;;;;;;5122574;28;20702;-50
2021/12/24 06:46:11;;;;;;;8.90;2.03;;;21.20;51.80;;;;;;5114959;28;20069;-51
2021/12/24 06:48:45;;;;;;;8.90;1.80;;;21.20;51.80;;;;;;5126978;28;20422;-48
2021/12/24 06:51:17;;;;;;;4.78;1.50;;;21.20;51.70;;;;;;5104456;28;20042;-50
2021/12/24 06:53:50;;;;;;;9.40;1.67;;;21.20;51.70;;;;;;5114447;28;20054;-47
2021/12/24 06:56:24;;;;;;;6.97;1.63;;;21.20;51.70;;;;;;5141943;28;20038;-49
2021/12/24 06:58:57;;;;;;;6.28;1.88;;;21.20;51.60;;;;;;5127900;28;21422;-50
2021/12/24 07:01:30;;;;;;;9.13;1.67;;;21.20;51.60;;;;;;5110638;28;20414;-50
2021/12/24 07:04:04;;;;;;;9.05;2.25;;;21.20;51.60;;;;;;5107809;28;20410;-48
2021/12/24 07:06:43;;;;;;;;;;;21.20;51.60;;;;;;5109788;28;20058;-49
2021/12/24 07:09:16;;;;;;;6.68;1.48;;;21.20;51.70;;;;;;5109935;28;19929;-49
2021/12/24 07:11:49;;;;;;;9.60;1.63;;;21.20;51.70;;;;;;5137831;28;20046;-54
2021/12/24 07:14:23;;;;;;;3.30;1.48;;;21.20;51.70;;;;;;5101505;28;20039;-49
2021/12/24 07:16:55;;;;;;;3.55;1.40;;;21.20;51.60;;;;;;5120725;28;20057;-52
2021/12/24 07:19:28;;;;;;;5.47;1.42;;;21.20;51.60;;;;;;5129435;28;20046;-51
2021/12/24 07:22:01;;;;;;;4.93;1.48;;;21.20;51.60;;;;;;5141591;28;20073;-50
2021/12/24 07:24:34;;;;;;;5.60;1.50;;;21.20;51.60;;;;;;5138797;28;20061;-47
2021/12/24 07:27:07;;;;;;;;;;;21.20;51.60;;;;;;5128066;28;20046;-49
2021/12/24 07:29:39;;;;;;;8.20;1.30;;;21.10;51.80;;;;;;5127324;28;19929;-51
2021/12/24 07:32:12;;;;;;;11.10;1.23;;;21.20;51.70;;;;;;5122191;28;20118;-49
2021/12/24 07:34:44;;;;;;;6.20;1.30;;;21.20;51.70;;;;;;5118265;28;20046;-50
2021/12/24 07:37:16;;;;;;;4.82;1.67;;;21.20;51.70;;;;;;5132583;28;20080;-50
2021/12/24 07:39:49;;;;;;;5.43;1.67;;;21.20;51.50;;;;;;5125885;28;20340;-53
2021/12/24 07:42:23;;;;;;;6.82;1.40;;;21.20;51.40;;;;;;5125108;28;20049;-48
2021/12/24 07:44:56;;;;;;;4.68;1.55;;;21.20;51.30;;;;;;5096080;28;20050;-48
2021/12/24 07:47:32;;;;;;;10.05;2.10;;;21.20;51.30;;;;;;5112291;28;20062;-50
2021/12/24 07:53:09;;;;;;;11.70;1.75;;;21.30;51.20;;;;;;5106984;28;20243;-48
2021/12/24 07:55:43;;;;;;;19.75;1.98;;;21.10;50.00;;;;;;5116223;22;20639;-49
2021/12/24 07:58:17;;;;;;;10.20;2.80;;;21.10;49.80;;;;;;5132366;23;20033;-52
2021/12/24 08:00:51;;;;;;;10.38;1.83;;;21.10;49.80;;;;;;5169828;28;20052;-53
2021/12/24 08:03:26;;;;;;;17.73;2.38;;;21.10;49.70;;;;;;5158836;28;20136;-50
2021/12/24 08:05:59;;;;;;;9.57;2.15;;;21.00;49.50;;;;;;5178881;28;20115;-53
2021/12/24 08:08:31;;;;;;;15.70;2.50;;;21.00;49.30;;;;;;5158314;28;20053;-52
2021/12/24 08:11:03;;;;;;;10.95;2.65;;;21.00;49.30;;;;;;5161187;28;20637;-52
2021/12/24 08:13:36;;;;;;;10.65;1.83;;;20.90;49.00;;;;;;5121529;28;20050;-47
2021/12/24 08:16:09;;;;;;;7.82;2.30;;;20.90;49.30;;;;;;5147103;28;20485;-49
2021/12/24 08:18:44;;;;;;;17.98;3.65;;;20.90;49.70;;;;;;5137355;22;20041;-46
2021/12/24 08:21:17;;;;;;;14.38;2.80;;;21.00;50.00;;;;;;5109705;28;20065;-52
2021/12/24 08:23:49;;;;;;;6.32;2.10;;;21.00;50.00;;;;;;5114993;28;20447;-51
2021/12/24 08:26:22;;;;;;;7.75;2.45;;;20.90;49.60;;;;;;5123233;28;20530;-52
2021/12/24 08:28:54;;;;;;;6.90;2.25;;;20.90;49.50;;;;;;5111021;28;20046;-51
2021/12/24 08:31:27;;;;;;;5.35;1.65;;;20.90;49.50;;;;;;5134137;28;20185;-52
2021/12/24 08:34:01;;;;;;;2.55;1.80;;;20.90;49.40;;;;;;5138101;28;20051;-49
2021/12/24 08:36:35;;;;;;;7.32;1.73;;;20.90;49.40;;;;;;5124088;28;20047;-50
2021/12/24 08:39:07;;;;;;;7.50;1.85;;;20.90;49.40;;;;;;5108486;28;20046;-51
2021/12/24 08:41:39;;;;;;;3.30;1.25;;;21.00;49.80;;;;;;5133914;28;20671;-52
2021/12/24 08:44:12;;;;;;;3.80;1.30;;;21.10;49.80;;;;;;5126109;28;20047;-49
2021/12/24 08:46:45;;;;;;;7.00;1.30;;;21.10;49.70;;;;;;5127486;28;20066;-50
2021/12/24 08:49:20;;;;;;;1.90;1.10;;;21.10;49.60;;;;;;5138677;28;20412;-50
2021/12/24 08:51:52;;;;;;;4.28;1.30;;;21.10;49.60;;;;;;5131116;28;20054;-52
2021/12/24 08:54:25;;;;;;;17.45;1.92;;;21.10;49.60;;;;;;5099814;28;20046;-50
2021/12/24 08:56:58;;;;;;;9.40;1.85;;;21.20;50.30;;;;;;5109705;28;20039;-53
2021/12/24 08:59:30;;;;;;;25.23;2.10;;;21.20;50.20;;;;;;5112679;28;20242;-50
2021/12/24 09:02:03;;;;;;;10.18;1.98;;;21.20;50.10;;;;;;5112756;28;20645;-52
2021/12/24 09:04:36;;;;;;;12.85;2.28;;;21.20;50.30;;;;;;5122402;28;20054;-48
2021/12/24 09:07:10;;;;;;;8.23;1.93;;;21.20;50.20;;;;;;5128718;28;20050;-48
2021/12/24 09:09:43;;;;;;;7.70;1.83;;;21.30;50.20;;;;;;5144874;28;20058;-48
2021/12/24 09:12:16;;;;;;;9.67;2.37;;;21.30;50.10;;;;;;5131722;28;20038;-48
2021/12/24 09:14:48;;;;;;;8.55;2.17;;;21.30;50.10;;;;;;5118759;28;20054;-49
2021/12/24 09:17:21;;;;;;;7.70;1.65;;;21.30;50.70;;;;;;5106542;28;20504;-49
2021/12/24 09:19:55;;;;;;;7.75;1.73;;;21.30;50.00;;;;;;5136463;28;20042;-54
2021/12/24 09:22:32;;;;;;;12.32;1.80;;;21.40;50.10;;;;;;5129793;28;20050;-53
2021/12/24 09:25:04;;;;;;;3.97;1.60;;;21.40;50.10;;;;;;5131416;28;20054;-53
2021/12/24 09:27:37;;;;;;;6.50;1.70;;;21.40;50.10;;;;;;5138002;28;20046;-49
2021/12/24 09:30:10;;;;;;;10.45;1.80;;;21.40;50.10;;;;;;5124296;28;20057;-49
2021/12/24 09:32:43;;;;;;;15.00;1.95;;;21.50;50.20;;;;;;5115768;28;20301;-54
2021/12/24 09:35:16;;;;;;;8.93;1.65;;;21.50;50.40;;;;;;5139719;28;20039;-49
2021/12/24 09:37:49;;;;;;;7.13;1.45;;;21.50;50.20;;;;;;5139352;28;20046;-53
2021/12/24 09:40:21;;;;;;;9.20;1.45;;;21.60;50.20;;;;;;5117702;28;20057;-52
2021/12/24 09:42:55;;;;;;;7.55;1.88;;;21.60;50.20;;;;;;5134412;28;20050;-50
2021/12/24 09:45:27;;;;;;;9.82;1.92;;;21.60;50.30;;;;;;5141677;28;20415;-54
2021/12/24 09:48:00;;;;;;;6.60;1.67;;;21.60;50.20;;;;;;5129113;28;20038;-52
2021/12/24 09:50:32;;;;;;;3.42;1.25;;;21.60;50.30;;;;;;5126936;28;20438;-53
2021/12/24 09:53:05;;;;;;;11.50;2.85;;;21.60;50.40;;;;;;5131638;28;20042;-51
2021/12/24 09:55:37;;;;;;;13.82;1.95;;;21.60;50.70;;;;;;5119843;28;20051;-50
2021/12/24 09:58:10;;;;;;;9.35;2.20;;;21.60;50.60;;;;;;5125531;28;20514;-52
2021/12/24 10:00:43;;;;;;;13.15;2.33;;;21.70;50.60;;;;;;5122785;28;20089;-51
2021/12/24 10:03:36;;;;;;;12.20;2.17;;;21.60;50.50;;;;;;5140759;28;20500;-52
2021/12/24 10:06:09;;;;;;;9.18;1.98;;;21.60;50.40;;;;;;5149487;28;20687;-54
2021/12/24 10:08:41;;;;;;;9.38;1.77;;;21.60;50.50;;;;;;5139070;28;20441;-51
2021/12/24 10:11:16;;;;;;;3.28;1.40;;;21.60;51.10;;;;;;5139920;28;20050;-51
2021/12/24 10:13:49;;;;;;;6.63;1.67;;;21.60;50.40;;;;;;5135915;28;20263;-52
2021/12/24 10:16:22;;;;;;;5.40;2.08;;;21.60;50.40;;;;;;5132335;28;20050;-53
2021/12/24 10:18:58;;;;;;;6.65;1.88;;;21.60;50.40;;;;;;5131301;28;20057;-52
2021/12/24 10:21:33;;;;;;;4.13;1.50;;;21.60;50.40;;;;;;5131476;28;20050;-49
2021/12/24 10:24:08;;;;;;;7.57;1.57;;;21.60;50.20;;;;;;4437341;28;10000252;-52
2021/12/24 10:26:50;;;;;;;4.57;1.30;;;21.60;50.20;;;;;;5137195;28;20455;-51
2021/12/24 10:29:33;;;;;;;7.50;1.60;;;21.60;50.20;;;;;;5118392;28;20069;-51
2021/12/24 10:32:15;;;;;;;9.20;2.33;;;21.60;50.20;;;;;;5123407;28;20125;-51
2021/12/24 10:34:47;;;;;;;5.50;1.55;;;21.60;50.20;;;;;;5119975;28;20146;-49
2021/12/24 10:37:26;;;;;;;4.75;1.55;;;21.60;50.20;;;;;;5119409;28;20045;-49
2021/12/24 10:40:02;;;;;;;3.55;1.42;;;21.60;50.20;;;;;;5130909;28;20050;-51
2021/12/24 10:42:38;;;;;;;6.75;1.90;;;21.60;50.20;;;;;;5126679;28;20054;-50
2021/12/24 10:45:20;;;;;;;5.10;1.23;;;21.60;50.20;;;;;;5141137;28;20057;-49
2021/12/24 10:47:52;;;;;;;3.80;1.52;;;21.60;50.20;;;;;;5134317;28;20303;-51
2021/12/24 10:53:22;;;;;;;5.50;1.52;;;21.60;50.20;;;;;;5120307;28;20440;-51
2021/12/24 10:55:54;;;;;;;8.27;1.40;;;21.60;50.20;;;;;;4778232;28;10000140;-51
2021/12/24 10:58:28;;;;;;;2.50;2.00;;;21.60;50.20;;;;;;5103898;28;20053;-52
2021/12/24 11:01:01;;;;;;;7.25;1.50;;;21.60;50.20;;;;;;5124281;28;20073;-49
2021/12/24 11:03:34;;;;;;;2.53;1.77;;;21.60;50.20;;;;;;5130412;28;20053;-51
2021/12/24 11:06:09;;;;;;;7.13;1.70;;;21.60;50.20;;;;;;5118649;28;20054;-51
2021/12/24 11:08:44;;;;;;;5.55;1.70;;;21.60;50.20;;;;;;5096398;23;20403;-51
2021/12/24 11:11:17;;;;;;;4.07;1.42;;;21.60;50.20;;;;;;5135788;28;20046;-47
2021/12/24 11:13:52;;;;;;;9.75;1.83;;;21.60;50.20;;;;;;5131218;28;20056;-51
2021/12/24 11:22:05;;;;;;;3.38;1.80;;;21.40;49.20;;;;;;5223919;27;20682;-34
2021/12/24 11:24:40;;;;;;;5.82;2.10;;;18.80;52.60;;;;;;5218297;28;20079;-34
2021/12/24 11:27:13;;;;;;;2.42;1.77;;;16.50;57.40;;;;;;5177547;28;20052;-34
2021/12/24 11:29:46;;;;;;;3.90;2.22;;;14.90;62.10;;;;;;5206750;28;20057;-33
2021/12/24 11:32:18;;;;;;;5.32;2.30;;;13.50;66.30;;;;;;5175863;28;20056;-34
2021/12/24 11:34:51;;;;;;;5.45;2.40;;;11.70;72.50;;;;;;5185247;28;20059;-34
2021/12/24 11:37:24;;;;;;;3.95;2.20;;;11.80;75.40;;;;;;5192271;28;20049;-34
2021/12/24 11:39:57;;;;;;;4.32;2.25;;;11.40;77.80;;;;;;5194467;28;20048;-33
2021/12/24 11:42:33;;;;;;;4.13;2.08;;;9.10;78.70;;;;;;5179645;28;20056;-34
2021/12/24 11:45:07;;;;;;;4.15;2.35;;;8.80;80.50;;;;;;5185204;28;20042;-33
2021/12/24 11:47:40;;;;;;;4.72;2.72;;;8.70;83.00;;;;;;5190627;28;20063;-34
2021/12/24 11:50:13;;;;;;;4.03;2.15;;;9.10;82.90;;;;;;5196285;28;20045;-34
2021/12/24 11:52:49;;;;;;;3.72;2.08;;;10.10;86.20;;;;;;5192721;28;20090;-34
2021/12/24 11:55:24;;;;;;;6.20;2.97;;;9.70;87.40;;;;;;5186464;28;20037;-34
2021/12/24 11:58:00;;;;;;;5.15;2.90;;;6.10;86.90;;;;;;5190342;28;20055;-33
2021/12/24 12:00:40;;;;;;;3.88;2.50;;;8.30;86.40;;;;;;5190406;28;20033;-34
2021/12/24 12:03:34;;;;;;;4.43;3.30;;;8.30;87.00;;;;;;5194347;28;20080;-33
2021/12/24 12:06:27;;;;;;;3.60;2.28;;;8.10;88.30;;;;;;5180712;28;20502;-34
2021/12/24 12:09:07;;;;;;;4.03;2.80;;;9.50;90.10;;;;;;4828747;28;9999986;-33
2021/12/24 12:11:45;;;;;;;4.22;2.40;;;7.80;90.00;;;;;;5196989;28;20053;-34
2021/12/24 12:14:26;;;;;;;6.38;2.85;;;10.10;91.20;;;;;;5186408;28;20048;-34
2021/12/24 12:17:01;;;;;;;6.57;2.53;;;6.60;90.20;;;;;;5198996;28;20061;-34
2021/12/24 12:25:13;;;;;;;5.82;2.30;;;10.50;92.20;;;;;;5193921;28;20483;-34
2021/12/24 12:27:53;;;;;;;4.18;2.35;;;11.30;92.10;;;;;;5200342;28;20037;-34
2021/12/24 12:30:28;;;;;;;6.68;2.67;;;6.10;90.90;;;;;;5191159;28;20040;-34
2021/12/24 12:33:29;;;;;;;5.40;2.50;;;7.60;91.10;;;;;;5182985;28;20375;-34
2021/12/24 12:36:06;;;;;;;4.28;2.50;;;7.50;91.60;;;;;;5172520;28;20399;-34
2021/12/24 12:38:43;;;;;;;4.15;2.17;;;9.30;91.70;;;;;;5170445;28;20183;-34
2021/12/24 12:41:42;;;;;;;3.42;2.08;;;8.10;91.60;;;;;;5164563;28;20050;-34
2021/12/24 12:44:16;;;;;;;4.32;2.15;;;10.30;92.50;;;;;;5181915;28;20490;-34
2021/12/24 12:46:51;;;;;;;4.40;1.85;;;7.60;91.60;;;;;;5184734;28;23829;-33
2021/12/24 12:49:31;;;;;;;6.57;3.47;;;8.50;91.70;;;;;;5176886;28;20060;-34
2021/12/24 12:52:16;;;;;;;2.75;2.03;;;7.60;91.50;;;;;;5182837;28;20196;-34
2021/12/24 12:54:56;;;;;;;3.47;2.08;;;7.90;91.80;;;;;;5161357;28;20060;-34
2021/12/24 12:57:31;;;;;;;3.08;2.40;;;9.90;93.00;;;;;;5168995;28;20493;-34
2021/12/24 13:00:19;;;;;;;3.60;2.17;;;9.60;92.90;;;;;;5169897;28;20647;-34
2021/12/24 13:02:58;;;;;;;3.17;2.08;;;7.20;92.40;;;;;;5167661;28;20600;-34
2021/12/24 13:05:32;;;;;;;6.78;2.03;;;7.90;92.60;;;;;;5156737;28;20380;-34
2021/12/24 13:08:12;;;;;;;2.92;1.90;;;7.60;92.60;;;;;;5172298;28;20040;-33
2021/12/24 13:11:08;;;;;;;4.60;2.25;;;7.60;92.10;;;;;;5178400;28;20402;-34
2021/12/24 13:14:01;;;;;;;2.88;1.90;;;7.30;92.70;;;;;;5176197;28;20057;-33
2021/12/24 13:16:51;;;;;;;2.85;1.80;;;7.50;93.00;;;;;;5175000;28;20044;-33
2021/12/24 13:19:33;;;;;;;2.67;1.95;;;;;;;;;;5156721;28;20072;-33
2021/12/24 13:25:13;;;;;;;4.50;1.92;;;7.60;92.60;;;;;;5180167;28;20041;-34
2021/12/24 13:27:52;;;;;;;2.40;1.88;;;7.70;94.00;;;;;;5181492;28;20033;-33
2021/12/24 13:30:26;;;;;;;3.15;2.35;;;8.60;93.90;;;;;;5170550;28;20057;-34
2021/12/24 13:33:02;;;;;;;7.15;2.22;;;7.40;92.80;;;;;;5159598;28;20052;-33
2021/12/24 13:35:39;;;;;;;4.40;2.17;;;7.60;92.90;;;;;;5158407;28;20045;-33
2021/12/24 13:38:24;;;;;;;4.25;2.30;;;7.70;92.80;;;;;;5177651;28;20363;-33
2021/12/24 13:40:57;;;;;;;5.22;2.28;;;;;;;;;;5173108;28;20053;-33
2021/12/24 13:43:36;;;;;;;4.13;2.00;;;8.30;93.90;;;;;;5172980;28;20497;-33
2021/12/24 13:46:11;;;;;;;2.80;2.15;;;7.60;93.20;;;;;;5171337;28;20091;-34
2021/12/24 13:54:51;;;;;;;2.80;1.90;;;;;;;;;;5185634;28;20299;-34
2021/12/24 13:57:24;;;;;;;2.35;2.05;;;;;;;;;;5183869;28;20402;-34
2021/12/24 13:59:57;;;;;;;5.50;2.13;;;8.40;94.60;;;;;;5181101;28;20052;-34
2021/12/24 14:02:30;;;;;;;3.60;2.00;;;;;;;;;;5188184;28;20056;-33
2021/12/24 14:05:03;;;;;;;4.03;2.00;;;;;;;;;;5172314;28;20064;-33
2021/12/24 14:07:36;;;;;;;2.42;1.83;;;;;;;;;;5181814;28;20048;-33
2021/12/24 14:10:23;;;;;;;2.78;1.92;;;7.70;93.70;;;;;;5187614;28;20049;-33
2021/12/24 14:13:03;;;;;;;2.50;1.70;;;;;;;;;;5183823;28;20580;-34
2021/12/24 14:15:58;;;;;;;3.47;1.90;;;7.50;93.80;;;;;;5177392;28;20054;-33
2021/12/24 14:24:10;;;;;;;2.40;1.80;;;;;;;;;;5179063;28;20046;-34
2021/12/24 14:26:45;;;;;;;8.15;1.90;;;6.10;93.70;;;;;;5175445;28;20049;-34
2021/12/24 14:29:33;;;;;;;3.60;1.88;;;7.70;93.80;;;;;;5169621;28;20049;-34
2021/12/24 14:32:26;;;;;;;3.50;2.10;;;7.90;94.60;;;;;;5176464;28;20475;-34
2021/12/24 14:35:19;;;;;;;6.20;2.08;;;8.00;94.80;;;;;;5167943;28;20057;-34
2021/12/24 14:38:00;;;;;;;2.60;1.83;;;5.70;94.50;;;;;;5172821;28;20053;-34
2021/12/24 14:40:36;;;;;;;3.65;2.25;;;7.70;94.50;;;;;;5165838;28;20072;-35
2021/12/24 14:43:17;;;;;;;9.68;2.53;;;7.70;94.60;;;;;;5171675;28;20399;-35
2021/12/24 14:45:51;;;;;;;3.42;2.20;;;;;;;;;;5178809;28;20037;-34
2021/12/24 14:48:29;;;;;;;3.75;2.17;;;5.90;94.60;;;;;;5170560;28;20463;-35
2021/12/24 14:51:05;;;;;;;3.85;2.00;;;8.50;95.70;;;;;;5166827;28;20043;-34
2021/12/24 14:53:45;;;;;;;3.17;2.22;;;7.70;95.30;;;;;;5164714;28;20071;-34
2021/12/24 14:56:20;;;;;;;4.28;1.65;;;10.90;96.30;;;;;;5167393;28;20053;-34
2021/12/24 14:58:58;;;;;;;4.13;1.88;;;7.60;95.30;;;;;;5170970;28;20042;-34
2021/12/24 15:01:39;;;;;;;3.63;2.40;;;7.50;95.60;;;;;;5150975;28;20434;-34
2021/12/24 15:04:12;;;;;;;4.07;2.67;;;6.30;95.00;;;;;;5163715;28;20852;-34
2021/12/24 15:06:51;;;;;;;5.57;2.30;;;8.20;96.30;;;;;;5162723;28;20053;-34
2021/12/24 15:09:29;;;;;;;4.80;2.92;;;;;;;;;;5158844;28;20411;-34
2021/12/24 15:12:16;;;;;;;5.45;3.38;;;7.60;95.70;;;;;;5165211;28;20046;-34
2021/12/24 15:14:48;;;;;;;5.82;2.90;;;8.40;96.10;;;;;;5176765;28;20949;-34
2021/12/24 15:17:20;;;;;;;2.80;1.83;;;10.00;96.70;;;;;;4476837;28;9999983;-34
2021/12/24 15:19:53;;;;;;;2.78;1.90;;;8.00;95.60;;;;;;5146595;28;20037;-34
2021/12/24 15:22:26;;;;;;;2.25;1.77;;;;;;;;;;5190811;28;20862;-34
2021/12/24 15:24:59;;;;;;;2.25;1.80;;;;;;;;;;5184198;28;20053;-35
2021/12/24 15:27:37;;;;;;;3.47;1.85;;;6.10;95.30;;;;;;5178626;28;20045;-35
2021/12/24 15:30:12;;;;;;;3.30;2.38;;;7.60;95.50;;;;;;5180733;28;20388;-34
2021/12/24 15:32:44;;;;;;;4.05;2.00;;;7.70;95.80;;;;;;5185745;28;20049;-35
2021/12/24 15:35:17;;;;;;;3.33;2.20;;;;;;;;;;5178128;28;20223;-35